createdAt,value
2022-09-15T00:04:17.007Z,9.38
2022-09-15T02:11:52.619Z,8.45
2022-09-15T02:14:53.057Z,7.40
2022-09-15T02:24:22.817Z,9.40
2022-09-15T02:35:29.810Z,6.75
2022-09-15T03:02:21.323Z,9.57
2022-09-15T03:05:12.131Z,8.40
2022-09-15T03:08:26.096Z,11.70
2022-09-15T03:16:00.937Z,7.85
2022-09-15T03:19:15.190Z,8.57
2022-09-15T03:32:40.012Z,9.25
2022-09-15T03:38:14.072Z,9.52
2022-09-15T03:44:14.250Z,9.98
2022-09-15T03:47:16.642Z,8.65
2022-09-15T03:50:11.419Z,10.35
2022-09-15T03:52:40.761Z,12.50
2022-09-15T03:55:17.677Z,11.07
2022-09-15T04:01:17.262Z,11.60
2022-09-15T04:04:10.769Z,11.10
2022-09-15T04:07:09.510Z,10.90
2022-09-15T04:10:11.846Z,10.45
2022-09-15T04:13:11.336Z,12.57
2022-09-15T04:16:10.366Z,12.23
2022-09-15T04:19:12.168Z,10.77
2022-09-15T04:21:48.718Z,13.68
2022-09-15T04:24:36.195Z,10.98
2022-09-15T04:27:18.300Z,12.23
2022-09-15T04:30:18.867Z,12.02
2022-09-15T04:32:50.913Z,10.30
2022-09-15T04:35:21.932Z,10.38
2022-09-15T04:47:40.573Z,14.52
2022-09-15T04:52:38.635Z,12.23
2022-09-15T04:58:40.242Z,11.82
2022-09-15T05:04:39.132Z,12.77
2022-09-15T05:07:36.849Z,13.45
2022-09-15T05:13:24.487Z,12.88
2022-09-15T05:16:41.135Z,10.65
2022-09-15T05:22:41.860Z,12.00
2022-09-15T05:25:33.571Z,10.95
2022-09-15T05:28:01.815Z,14.75
2022-09-15T05:34:36.419Z,10.88
2022-09-15T05:41:04.978Z,12.40
2022-09-15T05:43:45.890Z,10.75
2022-09-15T05:46:23.957Z,11.57
2022-09-15T05:49:33.192Z,12.77
2022-09-15T05:52:39.163Z,12.60
2022-09-15T05:58:31.478Z,11.85
2022-09-15T06:01:33.231Z,11.13
2022-09-15T06:04:34.650Z,11.80
2022-09-15T06:07:35.081Z,11.32
2022-09-15T06:13:06.403Z,12.35
2022-09-15T06:15:34.852Z,12.35
2022-09-15T06:18:30.820Z,14.30
2022-09-15T06:21:30.735Z,18.80
2022-09-15T06:27:36.142Z,14.00
2022-09-15T06:30:13.858Z,12.90
2022-09-15T06:32:45.153Z,13.13
2022-09-15T06:35:34.445Z,14.52
2022-09-15T06:38:38.752Z,13.32
2022-09-15T06:41:08.279Z,14.07
2022-09-15T06:46:59.898Z,12.80
2022-09-15T06:53:01.353Z,15.45
2022-09-15T06:59:31.312Z,12.93
2022-09-15T07:12:00.346Z,15.27
2022-09-15T07:14:59.063Z,13.23
2022-09-15T07:18:01.241Z,13.60
2022-09-15T07:21:30.545Z,12.98
2022-09-15T07:24:02.691Z,12.55
2022-09-15T07:26:59.816Z,13.20
2022-09-15T07:32:31.669Z,14.38
2022-09-15T07:35:00.118Z,14.63
2022-09-15T07:37:57.501Z,17.50
2022-09-15T07:41:00.325Z,12.13
2022-09-15T07:43:32.026Z,14.50
2022-09-15T07:46:04.556Z,13.65
2022-09-15T07:48:57.647Z,12.57
2022-09-15T07:54:28.021Z,12.32
2022-09-15T07:56:59.028Z,12.95
2022-09-15T08:00:02.968Z,15.23
2022-09-15T08:02:55.802Z,11.93
2022-09-15T08:05:38.136Z,13.10
2022-09-15T08:10:56.333Z,12.05
2022-09-15T08:16:29.014Z,10.70
2022-09-15T08:18:57.911Z,13.88
2022-09-15T08:33:55.394Z,15.80
2022-09-15T08:36:25.561Z,10.85
2022-09-15T08:38:56.894Z,11.70
2022-09-15T08:41:52.579Z,12.63
2022-09-15T08:44:58.340Z,11.38
2022-09-15T08:47:57.061Z,10.57
2022-09-15T08:54:03.501Z,14.15
2022-09-15T08:56:56.048Z,11.15
2022-09-15T09:02:55.609Z,10.93
2022-09-15T09:06:21.641Z,9.52
2022-09-15T09:09:22.060Z,12.98
2022-09-15T09:12:14.896Z,11.68
2022-09-15T09:15:13.636Z,12.48
2022-09-15T09:18:21.462Z,12.65
2022-09-15T09:21:35.451Z,14.25
2022-09-15T09:28:20.309Z,10.73
2022-09-15T09:38:18.447Z,12.10
2022-09-15T09:40:51.695Z,11.53
2022-09-15T09:43:23.218Z,11.77
2022-09-15T09:46:20.183Z,10.88
2022-09-15T09:49:23.936Z,11.88
2022-09-15T09:52:08.261Z,12.07
2022-09-15T09:55:20.805Z,11.35
2022-09-15T09:57:49.018Z,10.90
2022-09-15T10:01:19.830Z,10.88
2022-09-15T10:03:48.306Z,12.50
2022-09-15T10:06:35.307Z,11.90
2022-09-15T10:10:17.722Z,10.23
2022-09-15T10:16:18.958Z,11.83
2022-09-15T10:21:48.253Z,10.93
2022-09-15T10:24:30.030Z,9.85
2022-09-15T10:30:21.564Z,9.57
2022-09-15T10:35:50.795Z,13.25
2022-09-15T10:38:29.718Z,10.10
2022-09-15T10:41:48.861Z,11.30
2022-09-15T10:44:49.188Z,9.27
2022-09-15T10:47:44.680Z,9.90
2022-09-15T10:50:18.706Z,11.10
2022-09-15T10:53:14.027Z,11.73
2022-09-15T10:56:14.729Z,9.57
2022-09-15T10:58:48.567Z,8.57
2022-09-15T11:05:16.878Z,12.95
2022-09-15T11:11:43.681Z,8.68
2022-09-15T11:18:42.943Z,10.00
2022-09-15T11:24:49.872Z,9.98
2022-09-15T11:27:18.251Z,10.32
2022-09-15T11:33:41.351Z,10.60
2022-09-15T11:36:50.809Z,9.75
2022-09-15T11:43:48.492Z,9.48
2022-09-15T11:50:41.494Z,7.90
2022-09-15T11:53:00.162Z,8.68
2022-09-15T11:59:40.913Z,9.85
2022-09-15T12:23:39.674Z,9.02
2022-09-15T12:47:42.928Z,10.15
2022-09-15T12:50:45.968Z,7.47
2022-09-15T12:53:51.643Z,8.88
2022-09-15T12:59:48.566Z,9.52
2022-09-15T13:02:51.674Z,9.25
2022-09-15T13:08:10.407Z,9.95
2022-09-15T13:15:08.847Z,8.43
2022-09-15T13:18:06.555Z,10.70
2022-09-15T13:21:06.303Z,11.73
2022-09-15T13:24:08.362Z,11.65
2022-09-15T13:31:03.454Z,14.25
2022-09-15T13:41:08.133Z,10.25
2022-09-15T13:44:07.217Z,10.32
2022-09-15T13:47:35.265Z,10.90
2022-09-15T13:50:26.855Z,13.30
2022-09-15T13:55:43.220Z,11.32
2022-09-15T14:01:14.048Z,11.38
2022-09-15T14:03:52.975Z,11.00
2022-09-15T14:06:34.818Z,12.38
2022-09-15T14:09:13.574Z,13.88
2022-09-15T14:11:52.963Z,10.73
2022-09-15T14:14:47.914Z,11.85
2022-09-15T14:17:30.708Z,10.60
2022-09-15T14:20:07.209Z,11.30
2022-09-15T14:22:40.458Z,9.93
2022-09-15T14:28:03.167Z,11.10
2022-09-15T14:30:33.148Z,10.20
2022-09-15T14:40:29.932Z,8.52
2022-09-15T14:49:31.009Z,14.38
2022-09-15T14:52:35.988Z,13.73
2022-09-15T14:55:30.377Z,11.52
2022-09-15T14:58:39.282Z,12.02
2022-09-15T15:01:59.251Z,10.20
2022-09-15T15:05:29.619Z,12.77
2022-09-15T15:07:58.845Z,10.43
2022-09-15T15:10:36.512Z,12.48
2022-09-15T15:13:57.990Z,9.93
2022-09-15T15:20:33.107Z,9.73
2022-09-15T15:23:37.748Z,11.68
2022-09-15T15:29:57.321Z,8.20
2022-09-15T15:32:29.011Z,9.60
2022-09-15T15:35:04.434Z,10.50
2022-09-15T15:37:36.076Z,10.85
2022-09-15T15:40:28.014Z,9.25
2022-09-15T15:43:56.237Z,9.80
2022-09-15T15:47:01.391Z,9.48
2022-09-15T15:57:54.200Z,8.00
2022-09-15T16:03:58.208Z,6.90
2022-09-15T16:06:56.690Z,7.90
2022-09-15T16:09:55.920Z,7.32
2022-09-15T16:19:54.605Z,7.75
2022-09-15T16:22:53.006Z,7.17
2022-09-15T16:25:54.740Z,6.15
2022-09-15T16:36:53.612Z,5.85
2022-09-15T16:39:21.861Z,6.57
2022-09-15T16:41:50.305Z,5.28
2022-09-15T16:47:20.445Z,6.55
2022-09-15T16:49:54.522Z,7.18
2022-09-15T16:52:22.729Z,4.90
2022-09-15T16:54:51.206Z,5.85
2022-09-15T16:57:23.232Z,5.75
2022-09-15T16:59:51.417Z,5.38
2022-09-15T17:02:19.981Z,5.85
2022-09-15T17:04:51.642Z,6.00
2022-09-15T17:07:23.527Z,7.18
2022-09-15T17:09:52.227Z,5.20
2022-09-15T17:12:22.298Z,4.88
2022-09-15T17:14:50.676Z,6.03
2022-09-15T17:17:26.946Z,5.57
2022-09-15T17:19:55.379Z,6.95
2022-09-15T17:22:23.612Z,4.90
2022-09-15T17:24:51.867Z,7.05
2022-09-15T17:27:20.069Z,5.68
2022-09-15T17:29:48.589Z,6.20
2022-09-15T17:38:23.846Z,5.93
2022-09-15T17:41:24.042Z,6.03
2022-09-15T17:44:21.419Z,5.63
2022-09-15T17:46:50.579Z,4.85
2022-09-15T17:52:22.293Z,7.30
2022-09-15T18:02:20.320Z,6.45
2022-09-15T18:10:46.427Z,6.40
2022-09-15T18:13:25.380Z,6.05
2022-09-15T18:16:20.131Z,5.57
2022-09-15T18:18:48.570Z,5.13
2022-09-15T18:21:28.872Z,4.93
2022-09-15T18:28:16.421Z,5.65
2022-09-15T18:31:16.655Z,7.45
2022-09-15T18:33:45.082Z,6.77
2022-09-15T18:36:16.820Z,5.57
2022-09-15T18:38:45.160Z,6.90
2022-09-15T18:41:16.343Z,7.13
2022-09-15T18:43:44.678Z,5.72
2022-09-15T18:46:13.890Z,6.43
2022-09-15T18:48:42.647Z,5.60
2022-09-15T18:51:24.156Z,6.57
2022-09-15T18:56:44.598Z,4.97
2022-09-15T18:59:16.649Z,6.90
2022-09-15T19:01:46.092Z,4.70
2022-09-15T19:04:15.089Z,6.40
2022-09-15T19:06:46.417Z,5.78
2022-09-15T19:09:23.410Z,7.20
2022-09-15T19:11:51.748Z,6.35
2022-09-15T19:14:24.816Z,5.60
2022-09-15T19:16:58.069Z,5.72
2022-09-15T19:19:39.990Z,6.47
2022-09-15T19:22:36.229Z,5.97
2022-09-15T19:27:48.751Z,5.88
2022-09-15T19:33:44.401Z,6.85
2022-09-15T19:36:45.468Z,5.53
2022-09-15T19:44:44.709Z,5.13
2022-09-15T19:47:13.002Z,4.88
2022-09-15T19:49:44.072Z,4.88
2022-09-15T19:52:13.662Z,7.43
2022-09-15T19:54:41.967Z,6.47
2022-09-15T19:57:13.284Z,5.80
2022-09-15T19:59:45.526Z,5.25
2022-09-15T20:02:44.415Z,6.47
2022-09-15T20:05:11.487Z,7.25
2022-09-15T20:07:42.607Z,5.65
2022-09-15T20:13:10.605Z,6.88
2022-09-15T20:15:43.781Z,6.53
2022-09-15T20:18:13.408Z,4.82
2022-09-15T20:20:41.826Z,6.60
2022-09-15T20:23:10.058Z,4.65
2022-09-15T20:25:41.121Z,7.60
2022-09-15T20:28:12.432Z,5.47
2022-09-15T20:30:43.649Z,6.22
2022-09-15T20:33:11.924Z,8.00
2022-09-15T20:35:43.024Z,5.75
2022-09-15T20:38:11.290Z,6.90
2022-09-15T20:40:42.741Z,7.00
2022-09-15T20:43:11.036Z,5.35
2022-09-15T20:45:42.374Z,5.93
2022-09-15T20:48:10.624Z,5.70
2022-09-15T20:50:41.820Z,5.80
2022-09-15T20:53:10.047Z,6.20
2022-09-15T20:55:41.290Z,7.45
2022-09-15T20:58:11.780Z,4.82
2022-09-15T21:00:40.024Z,6.75
2022-09-15T21:03:17.503Z,6.15
2022-09-15T21:06:11.389Z,5.63
2022-09-15T21:09:08.383Z,5.03
2022-09-15T21:14:25.388Z,6.07
2022-09-15T21:21:39.894Z,5.40
2022-09-15T21:24:11.337Z,5.85
2022-09-15T21:30:09.296Z,6.00
2022-09-15T21:32:38.591Z,6.15
2022-09-15T21:35:12.852Z,7.20
2022-09-15T21:38:08.924Z,5.95
2022-09-15T21:43:40.552Z,6.93
2022-09-15T21:46:12.326Z,8.55
2022-09-15T21:49:07.429Z,6.40
2022-09-15T21:51:38.555Z,7.45
2022-09-15T21:54:10.940Z,5.53
2022-09-15T21:56:39.192Z,7.65
2022-09-15T21:59:12.110Z,6.70
2022-09-15T22:02:13.462Z,7.60
2022-09-15T22:07:36.506Z,7.88
2022-09-15T22:10:07.922Z,8.32
2022-09-15T22:12:39.186Z,7.18
2022-09-15T22:15:10.128Z,6.82
2022-09-15T22:21:17.732Z,8.38
2022-09-15T23:41:13.391Z,5.78
